Time;durP1;ratioP1;P1;durP2;ratioP2;P2;SDS_P1;SDS_P2;PMS_P1;PMS_P2;Temp;Humidity;BMP_temperature;BMP_pressure;BME280_temperature;BME280_humidity;BME280_pressure;Samples;Min_cycle;Max_cycle;Signal;HPM_P1;HPM_P2
2024/04/18 00:00:29;;;;;;;0.80;0.80;;;6.50;99.90;;;;;;5424151;26;20035;-77
2024/04/18 00:02:55;;;;;;;0.60;0.60;;;6.40;99.90;;;;;;5456246;26;20006;-77
2024/04/18 00:05:21;;;;;;;1.17;0.75;;;6.50;99.90;;;;;;5454685;26;19994;-77
2024/04/18 00:07:47;;;;;;;0.68;0.68;;;6.50;99.90;;;;;;5423612;26;20017;-78
2024/04/18 00:10:16;;;;;;;1.10;0.73;;;6.50;99.90;;;;;;5423786;26;20002;-77
2024/04/18 00:12:41;;;;;;;0.57;0.57;;;6.50;99.90;;;;;;5454009;26;19995;-77
2024/04/18 00:15:10;;;;;;;0.47;0.30;;;6.40;99.90;;;;;;5455394;26;20017;-76
2024/04/18 00:17:37;;;;;;;0.52;0.52;;;6.20;99.90;;;;;;5460027;26;19999;-77
2024/04/18 00:20:03;;;;;;;0.38;0.38;;;6.20;99.90;;;;;;5459608;26;20426;-77
2024/04/18 00:22:29;;;;;;;0.38;0.38;;;6.00;99.90;;;;;;5458527;26;20060;-77
2024/04/18 00:24:55;;;;;;;0.73;0.73;;;5.80;99.90;;;;;;5423379;26;20011;-77
2024/04/18 00:27:20;;;;;;;0.57;0.55;;;5.80;99.90;;;;;;5454339;26;20352;-77
2024/04/18 00:29:46;;;;;;;0.38;0.38;;;5.70;99.90;;;;;;5454278;26;20476;-77
2024/04/18 00:32:13;;;;;;;0.40;0.40;;;5.60;99.90;;;;;;5422140;26;20513;-77
2024/04/18 00:34:39;;;;;;;0.30;0.30;;;5.50;99.90;;;;;;5421727;26;20114;-77
2024/04/18 00:37:05;;;;;;;0.55;0.50;;;5.50;99.90;;;;;;5454508;26;19995;-77
2024/04/18 00:39:31;;;;;;;0.38;0.30;;;5.40;99.90;;;;;;5422549;26;20406;-77
2024/04/18 00:41:56;;;;;;;0.30;0.30;;;5.30;99.90;;;;;;5422264;26;20036;-77
2024/04/18 00:44:22;;;;;;;0.50;0.50;;;5.20;99.90;;;;;;5453679;26;20006;-77
2024/04/18 00:46:49;;;;;;;0.73;0.40;;;5.10;99.90;;;;;;5454585;26;20006;-77
2024/04/18 00:49:15;;;;;;;0.50;0.50;;;5.10;99.90;;;;;;5421761;26;20436;-77
2024/04/18 00:51:42;;;;;;;0.40;0.40;;;4.90;99.90;;;;;;5454185;26;19991;-77
2024/04/18 00:54:09;;;;;;;0.88;0.50;;;4.90;99.90;;;;;;5451805;26;19995;-77
2024/04/18 00:56:36;;;;;;;0.40;0.40;;;4.90;99.90;;;;;;5421644;26;19999;-77
2024/04/18 00:59:02;;;;;;;0.40;0.40;;;4.80;99.90;;;;;;5454534;26;19994;-77
2024/04/18 01:01:29;;;;;;;0.38;0.38;;;4.90;99.90;;;;;;5422129;26;19999;-77
2024/04/18 01:03:56;;;;;;;0.45;0.45;;;4.80;99.90;;;;;;5421211;26;20002;-77
2024/04/18 01:06:22;;;;;;;0.30;0.30;;;4.80;99.90;;;;;;5421880;26;20088;-77
2024/04/18 01:08:48;;;;;;;0.40;0.40;;;4.70;99.90;;;;;;5454205;26;20007;-77
2024/04/18 01:11:13;;;;;;;1.42;0.70;;;4.60;99.90;;;;;;5422135;26;20097;-77
2024/04/18 01:13:39;;;;;;;0.57;0.57;;;4.50;99.90;;;;;;5452982;26;20418;-77
2024/04/18 01:16:05;;;;;;;0.55;0.55;;;4.40;99.90;;;;;;5453592;26;19995;-77
2024/04/18 01:18:32;;;;;;;1.95;0.70;;;4.50;99.90;;;;;;5453940;26;20031;-77
2024/04/18 01:20:57;;;;;;;0.50;0.40;;;4.40;99.90;;;;;;5421765;26;20044;-77
2024/04/18 01:23:26;;;;;;;1.23;0.40;;;4.40;99.90;;;;;;5422086;26;20006;-77
2024/04/18 01:25:51;;;;;;;0.88;0.75;;;4.30;99.90;;;;;;5421554;26;20062;-77
2024/04/18 01:28:17;;;;;;;0.93;0.60;;;4.20;99.90;;;;;;5453416;26;19995;-77
2024/04/18 01:30:43;;;;;;;1.65;0.40;;;4.10;99.90;;;;;;5421625;26;20006;-77
2024/04/18 01:33:09;;;;;;;0.85;0.52;;;4.20;99.90;;;;;;5453610;26;20006;-77
2024/04/18 01:35:34;;;;;;;0.60;0.60;;;4.20;99.90;;;;;;5451642;26;20534;-77
2024/04/18 01:38:00;;;;;;;3.00;0.80;;;4.10;99.90;;;;;;5452331;26;20006;-77
2024/04/18 01:40:26;;;;;;;1.23;0.57;;;4.20;99.90;;;;;;5453296;26;20011;-77
2024/04/18 01:42:51;;;;;;;1.10;1.00;;;4.20;99.90;;;;;;5421530;26;20009;-77
2024/04/18 01:45:17;;;;;;;0.30;0.30;;;4.10;99.90;;;;;;5452452;26;20006;-77
2024/04/18 01:47:43;;;;;;;2.58;0.68;;;4.10;99.90;;;;;;5421575;26;19999;-76
2024/04/18 01:50:09;;;;;;;0.95;0.70;;;4.10;99.90;;;;;;5421343;26;20402;-77
2024/04/18 01:52:39;;;;;;;4.20;0.80;;;4.10;99.90;;;;;;5452747;26;20014;-77
2024/04/18 01:55:06;;;;;;;0.80;0.80;;;4.20;99.90;;;;;;5451878;26;20067;-77
2024/04/18 01:57:32;;;;;;;0.93;0.93;;;3.90;99.90;;;;;;5421461;26;19998;-77
2024/04/18 01:59:58;;;;;;;0.85;0.75;;;3.90;99.90;;;;;;5420497;26;20009;-77
2024/04/18 02:02:24;;;;;;;0.60;0.50;;;3.90;99.90;;;;;;5452307;26;19995;-76
2024/04/18 02:04:50;;;;;;;0.90;0.70;;;4.00;99.90;;;;;;5452468;26;20006;-77
2024/04/18 02:07:16;;;;;;;0.93;0.90;;;3.90;99.90;;;;;;5421006;26;20351;-77
2024/04/18 02:09:42;;;;;;;1.13;0.90;;;3.90;99.90;;;;;;5452722;26;20009;-77
2024/04/18 02:12:07;;;;;;;1.45;0.93;;;4.00;99.90;;;;;;5452265;26;20385;-77
2024/04/18 02:14:33;;;;;;;0.80;0.80;;;3.90;99.90;;;;;;5451758;26;20407;-77
2024/04/18 02:16:59;;;;;;;1.02;0.80;;;4.00;99.90;;;;;;5452295;26;20012;-77
2024/04/18 02:19:25;;;;;;;1.85;0.70;;;4.00;99.90;;;;;;5451772;26;20343;-77
2024/04/18 02:21:51;;;;;;;0.60;0.60;;;3.90;99.90;;;;;;5421679;26;20658;-77
2024/04/18 02:24:17;;;;;;;2.10;1.02;;;4.00;99.90;;;;;;5420019;26;19995;-77
2024/04/18 02:26:43;;;;;;;3.13;1.15;;;3.90;99.90;;;;;;5421211;26;19995;-77
2024/04/18 02:29:09;;;;;;;1.00;0.90;;;4.10;99.90;;;;;;5421623;26;19995;-77
2024/04/18 02:31:35;;;;;;;0.80;0.80;;;4.10;99.90;;;;;;5452790;26;20358;-76
2024/04/18 02:34:01;;;;;;;1.13;0.70;;;4.10;99.90;;;;;;5420133;26;20336;-77
2024/04/18 02:36:27;;;;;;;1.10;1.00;;;4.10;99.90;;;;;;5453096;26;20020;-77
2024/04/18 02:38:53;;;;;;;1.42;0.90;;;4.00;99.90;;;;;;5420409;26;20391;-77
2024/04/18 02:41:19;;;;;;;1.73;0.98;;;4.10;99.90;;;;;;5452374;26;19995;-77
2024/04/18 02:43:45;;;;;;;0.88;0.88;;;4.00;99.90;;;;;;5452004;26;20332;-76
2024/04/18 02:46:10;;;;;;;1.17;0.70;;;3.90;99.90;;;;;;5417493;26;20054;-77
2024/04/18 02:48:39;;;;;;;0.70;0.70;;;4.00;99.90;;;;;;5448969;26;19999;-77
2024/04/18 02:51:08;;;;;;;0.85;0.85;;;3.90;99.90;;;;;;5438673;26;20010;-77
2024/04/18 02:53:33;;;;;;;0.80;0.77;;;3.80;99.90;;;;;;5452148;26;20002;-77
2024/04/18 02:55:59;;;;;;;1.58;0.95;;;3.80;99.90;;;;;;5456412;26;19993;-77
2024/04/18 02:58:25;;;;;;;1.13;1.02;;;3.70;99.90;;;;;;5487821;26;20452;-77
2024/04/18 03:00:50;;;;;;;0.90;0.90;;;3.80;99.90;;;;;;5454890;26;20437;-77
2024/04/18 03:03:16;;;;;;;1.13;1.00;;;3.60;99.90;;;;;;5489095;26;20002;-77
2024/04/18 03:05:42;;;;;;;1.85;0.90;;;3.60;99.90;;;;;;5488043;26;20005;-77
2024/04/18 03:08:07;;;;;;;4.20;1.00;;;3.60;99.90;;;;;;5456270;26;20010;-77
2024/04/18 03:10:33;;;;;;;2.05;1.00;;;3.60;99.90;;;;;;5488546;26;20002;-78
2024/04/18 03:12:58;;;;;;;1.08;0.98;;;3.50;99.90;;;;;;5487768;26;19998;-77
2024/04/18 03:15:24;;;;;;;1.30;0.98;;;3.40;99.90;;;;;;5487223;26;20471;-77
2024/04/18 03:17:51;;;;;;;3.00;1.10;;;3.50;99.90;;;;;;5488582;26;20491;-77
2024/04/18 03:20:17;;;;;;;1.15;1.05;;;3.60;99.90;;;;;;5488148;26;20009;-77
2024/04/18 03:22:43;;;;;;;1.63;1.10;;;3.50;99.90;;;;;;5455616;26;19998;-77
2024/04/18 03:25:08;;;;;;;0.85;0.85;;;3.60;99.90;;;;;;5455142;26;20008;-77
2024/04/18 03:27:35;;;;;;;0.65;0.65;;;3.60;99.90;;;;;;5487800;26;20441;-77
2024/04/18 03:30:01;;;;;;;0.77;0.77;;;3.60;99.90;;;;;;5454967;26;20451;-77
2024/04/18 03:32:26;;;;;;;2.28;1.05;;;3.50;99.90;;;;;;5487539;26;20026;-77
2024/04/18 03:34:52;;;;;;;1.30;1.20;;;3.50;99.90;;;;;;5487088;26;20460;-77
2024/04/18 03:37:18;;;;;;;4.03;3.40;;;3.40;99.90;;;;;;5487001;26;20448;-77
2024/04/18 03:39:44;;;;;;;2.45;2.25;;;3.50;99.90;;;;;;5485636;26;20009;-77
2024/04/18 03:42:09;;;;;;;2.50;2.30;;;3.60;99.90;;;;;;5486750;26;19998;-77
2024/04/18 03:44:36;;;;;;;2.47;1.70;;;3.50;99.90;;;;;;5486691;26;20010;-77
2024/04/18 03:47:02;;;;;;;1.45;1.35;;;3.60;99.90;;;;;;5455237;26;20065;-77
2024/04/18 03:49:28;;;;;;;1.33;1.23;;;3.60;99.90;;;;;;5486875;26;19994;-77
2024/04/18 03:51:54;;;;;;;1.65;1.02;;;3.60;99.90;;;;;;5463676;26;20062;-77
2024/04/18 03:54:21;;;;;;;1.30;1.20;;;3.80;99.90;;;;;;5441873;26;20005;-77
2024/04/18 03:56:47;;;;;;;1.33;1.23;;;3.60;99.90;;;;;;5439565;26;20006;-77
2024/04/18 03:59:13;;;;;;;1.00;0.90;;;3.60;99.90;;;;;;5487449;26;20000;-77
2024/04/18 04:01:38;;;;;;;2.53;1.70;;;3.60;99.90;;;;;;5486819;26;20441;-76
2024/04/18 04:04:05;;;;;;;1.30;1.20;;;3.60;99.90;;;;;;5473297;26;20002;-77
2024/04/18 04:06:31;;;;;;;7.78;4.43;;;3.60;99.90;;;;;;5423006;26;19995;-76
2024/04/18 04:08:56;;;;;;;4.60;3.40;;;3.70;99.90;;;;;;5450026;26;19991;-77
2024/04/18 04:11:22;;;;;;;2.80;2.60;;;3.90;99.90;;;;;;5418299;26;20005;-76
2024/04/18 04:13:48;;;;;;;3.13;2.72;;;3.70;99.90;;;;;;5448889;26;20003;-77
2024/04/18 04:16:13;;;;;;;12.00;1.80;;;3.70;99.90;;;;;;5449689;26;20390;-76
2024/04/18 04:18:39;;;;;;;1.67;1.58;;;3.80;99.90;;;;;;5449755;26;20013;-77
2024/04/18 04:21:05;;;;;;;11.40;1.98;;;3.90;99.90;;;;;;5418097;26;19991;-76
2024/04/18 04:23:31;;;;;;;8.98;2.90;;;3.80;99.90;;;;;;5468019;26;19998;-77
2024/04/18 04:25:57;;;;;;;2.72;2.20;;;3.70;99.90;;;;;;5490045;26;20001;-77
2024/04/18 04:28:22;;;;;;;2.83;1.70;;;3.70;99.90;;;;;;5489989;26;19994;-77
2024/04/18 04:30:48;;;;;;;2.22;1.95;;;3.70;99.90;;;;;;5489518;26;20001;-77
2024/04/18 04:33:14;;;;;;;2.45;1.65;;;3.80;99.90;;;;;;5489718;26;19990;-76
2024/04/18 04:35:39;;;;;;;1.80;1.70;;;3.90;99.90;;;;;;5488140;26;20001;-77
2024/04/18 04:38:05;;;;;;;2.10;1.85;;;3.80;99.90;;;;;;5489438;26;19990;-77
2024/04/18 04:40:31;;;;;;;2.45;2.10;;;3.70;99.90;;;;;;5489686;26;20463;-76
2024/04/18 04:42:57;;;;;;;2.58;1.88;;;3.80;99.90;;;;;;5484732;26;20017;-76
2024/04/18 04:45:23;;;;;;;4.78;2.30;;;3.80;99.90;;;;;;5436254;26;19995;-77
2024/04/18 04:47:49;;;;;;;2.95;1.92;;;3.80;99.90;;;;;;5490104;26;19994;-77
2024/04/18 04:50:15;;;;;;;4.55;2.88;;;3.90;99.90;;;;;;5489794;26;20070;-77
2024/04/18 04:52:41;;;;;;;4.22;2.10;;;3.90;99.90;;;;;;5491030;26;19994;-76
2024/04/18 04:55:06;;;;;;;3.03;2.13;;;4.90;99.90;;;;;;5432010;26;20010;-76
2024/04/18 04:57:32;;;;;;;2.05;1.90;;;4.60;99.90;;;;;;5458125;26;20018;-77
2024/04/18 04:59:58;;;;;;;4.65;2.28;;;4.60;99.90;;;;;;5429645;26;19999;-76
2024/04/18 05:02:23;;;;;;;2.78;2.30;;;4.40;99.90;;;;;;5475650;26;20074;-77
2024/04/18 05:04:50;;;;;;;2.75;2.47;;;4.40;99.90;;;;;;5457236;26;19994;-77
2024/04/18 05:07:15;;;;;;;4.57;3.17;;;4.40;99.90;;;;;;5436672;26;20025;-77
2024/04/18 05:09:41;;;;;;;5.57;3.80;;;4.40;99.90;;;;;;5455996;26;20460;-77
2024/04/18 05:12:07;;;;;;;2.50;2.30;;;4.50;99.90;;;;;;5422584;26;20334;-77
2024/04/18 05:14:33;;;;;;;4.65;2.78;;;4.40;99.90;;;;;;5422196;26;20468;-77
2024/04/18 05:16:58;;;;;;;9.10;2.60;;;4.50;99.90;;;;;;5454167;26;19995;-77
2024/04/18 05:19:24;;;;;;;2.97;2.55;;;4.60;99.90;;;;;;5454426;26;20044;-77
2024/04/18 05:21:49;;;;;;;4.53;2.03;;;4.80;99.90;;;;;;5460419;26;20139;-77
2024/04/18 05:24:15;;;;;;;2.15;1.83;;;4.90;99.90;;;;;;5490099;26;20455;-77
2024/04/18 05:26:41;;;;;;;3.55;2.38;;;4.90;99.90;;;;;;5457785;26;19998;-77
2024/04/18 05:31:51;;;;;;;2.70;1.75;;;5.10;99.90;;;;;;5489704;26;20485;-77
2024/04/18 05:34:16;;;;;;;2.78;1.92;;;5.20;99.90;;;;;;5431805;26;20007;-76
2024/04/18 05:36:47;;;;;;;2.47;2.15;;;5.20;99.90;;;;;;5471870;26;20019;-77
2024/04/18 05:39:13;;;;;;;2.10;1.90;;;5.40;99.90;;;;;;5422167;26;20326;-77
2024/04/18 05:41:39;;;;;;;2.42;2.22;;;5.50;99.90;;;;;;5457361;26;20015;-77
2024/04/18 05:44:05;;;;;;;2.22;2.08;;;5.60;99.90;;;;;;5430533;26;20468;-77
2024/04/18 05:46:30;;;;;;;1.73;1.60;;;5.70;99.90;;;;;;5458238;26;20006;-77
2024/04/18 05:48:56;;;;;;;2.30;1.67;;;5.70;99.90;;;;;;5462938;26;19991;-77
2024/04/18 05:51:22;;;;;;;2.47;1.98;;;5.80;99.90;;;;;;5460730;26;20002;-78
2024/04/18 05:53:48;;;;;;;3.55;2.60;;;6.00;99.90;;;;;;5432147;26;20009;-77
2024/04/18 05:56:13;;;;;;;2.55;2.05;;;6.10;99.90;;;;;;5481345;26;19998;-78
2024/04/18 05:58:40;;;;;;;1.70;1.60;;;6.20;99.90;;;;;;5458513;26;20020;-78
2024/04/18 06:01:06;;;;;;;2.17;1.98;;;6.40;99.90;;;;;;5458796;26;20012;-78
2024/04/18 06:03:32;;;;;;;2.00;1.70;;;6.60;99.90;;;;;;5490228;26;20460;-77
2024/04/18 06:05:59;;;;;;;1.67;1.50;;;6.70;99.90;;;;;;5490500;26;20009;-77
2024/04/18 06:08:25;;;;;;;4.35;1.65;;;6.60;99.90;;;;;;5458377;26;20002;-78
2024/04/18 06:10:51;;;;;;;2.17;1.98;;;6.70;99.90;;;;;;5450261;26;19990;-76
2024/04/18 06:13:22;;;;;;;2.22;1.92;;;7.00;99.90;;;;;;5448551;26;20327;-77
2024/04/18 06:15:48;;;;;;;1.42;1.33;;;7.00;99.90;;;;;;5458765;26;19994;-77
2024/04/18 06:18:14;;;;;;;2.60;1.67;;;7.30;99.90;;;;;;5427543;26;20371;-77
2024/04/18 06:20:45;;;;;;;2.88;1.50;;;7.50;99.00;;;;;;5452484;26;19991;-77
2024/04/18 06:23:11;;;;;;;2.20;2.00;;;7.70;97.70;;;;;;5471177;26;20001;-78
2024/04/18 06:25:37;;;;;;;2.13;1.25;;;7.80;97.00;;;;;;5474802;26;20406;-77
2024/04/18 06:28:07;;;;;;;1.70;1.25;;;7.90;94.60;;;;;;5490172;26;20078;-76
2024/04/18 06:30:32;;;;;;;3.17;1.50;;;8.00;93.80;;;;;;5490343;26;20009;-77
2024/04/18 06:32:58;;;;;;;1.95;1.55;;;8.10;92.50;;;;;;5451196;26;20010;-77
2024/04/18 06:35:24;;;;;;;2.20;1.75;;;8.20;92.30;;;;;;5451092;26;19999;-78
2024/04/18 06:37:50;;;;;;;1.35;1.25;;;8.40;92.10;;;;;;5454391;26;20474;-78
2024/04/18 06:40:19;;;;;;;33.33;12.20;;;8.40;90.90;;;;;;5451626;26;20418;-76
2024/04/18 06:42:44;;;;;;;3.22;2.63;;;8.50;90.60;;;;;;5449622;26;19999;-75
2024/04/18 06:45:10;;;;;;;3.03;1.10;;;8.60;88.70;;;;;;5450600;26;20006;-76
2024/04/18 06:47:36;;;;;;;1.95;1.17;;;8.60;85.00;;;;;;5448394;26;19995;-76
2024/04/18 06:50:01;;;;;;;1.67;1.20;;;8.60;85.00;;;;;;5446194;26;20354;-76
2024/04/18 06:52:27;;;;;;;2.95;1.38;;;8.70;86.50;;;;;;5429231;26;20006;-76
2024/04/18 06:54:53;;;;;;;2.00;1.60;;;8.90;89.00;;;;;;5425347;26;20344;-76
2024/04/18 06:57:18;;;;;;;1.48;1.30;;;9.10;85.50;;;;;;5441280;26;20341;-77
2024/04/18 06:59:44;;;;;;;2.08;1.65;;;9.30;85.50;;;;;;5456479;26;20001;-76
2024/04/18 07:02:09;;;;;;;1.67;1.40;;;9.40;76.70;;;;;;5487611;26;20028;-76
2024/04/18 07:04:35;;;;;;;1.90;1.25;;;9.30;75.80;;;;;;5486955;26;20005;-76
2024/04/18 07:07:01;;;;;;;1.92;1.40;;;9.50;77.20;;;;;;5447988;26;20409;-76
2024/04/18 07:09:27;;;;;;;1.85;1.35;;;9.60;75.00;;;;;;5459886;26;19994;-76
2024/04/18 07:11:52;;;;;;;4.10;1.50;;;9.70;69.50;;;;;;5466136;26;20010;-76
2024/04/18 07:14:18;;;;;;;1.42;1.33;;;9.80;68.90;;;;;;5450851;26;19987;-76
2024/04/18 07:16:43;;;;;;;0.82;0.82;;;9.70;70.00;;;;;;5419664;26;20452;-77
2024/04/18 07:19:09;;;;;;;1.80;0.88;;;9.70;71.90;;;;;;5446261;26;19998;-76
2024/04/18 07:21:35;;;;;;;1.13;1.13;;;9.80;69.30;;;;;;5448539;26;19995;-76
2024/04/18 07:24:00;;;;;;;0.77;0.77;;;9.90;65.50;;;;;;5448182;26;19998;-77
2024/04/18 07:26:26;;;;;;;2.28;0.88;;;10.20;70.60;;;;;;5411725;26;19992;-76
2024/04/18 07:28:51;;;;;;;2.35;0.98;;;11.20;76.90;;;;;;5453021;26;20046;-76
2024/04/18 07:31:17;;;;;;;1.80;1.50;;;10.90;63.30;;;;;;5432446;26;20104;-75
2024/04/18 07:33:43;;;;;;;3.05;1.00;;;10.70;59.90;;;;;;5432474;26;20015;-76
2024/04/18 07:36:08;;;;;;;2.17;1.40;;;10.60;59.00;;;;;;5424047;26;20010;-76
2024/04/18 07:38:34;;;;;;;1.45;1.10;;;10.60;60.90;;;;;;5481426;26;20002;-76
2024/04/18 07:41:00;;;;;;;2.55;1.30;;;10.60;58.00;;;;;;5483184;26;19994;-76
2024/04/18 07:43:25;;;;;;;2.42;1.17;;;10.60;59.00;;;;;;5451749;26;19998;-75
2024/04/18 07:45:51;;;;;;;1.35;1.08;;;10.80;59.20;;;;;;5465412;26;20057;-76
2024/04/18 07:48:16;;;;;;;1.13;0.93;;;10.80;59.60;;;;;;5477813;26;20010;-76
2024/04/18 07:50:43;;;;;;;2.65;1.08;;;10.80;54.40;;;;;;5443595;26;20012;-76
2024/04/18 07:53:08;;;;;;;2.20;1.10;;;10.90;58.90;;;;;;5454851;26;20542;-76
2024/04/18 07:55:34;;;;;;;2.83;1.13;;;11.00;55.90;;;;;;5449202;26;20006;-79
2024/04/18 07:58:00;;;;;;;1.75;1.05;;;11.00;54.00;;;;;;5444113;26;20030;-78
2024/04/18 08:00:25;;;;;;;3.95;1.10;;;11.30;55.90;;;;;;5462196;26;20001;-78
2024/04/18 08:02:51;;;;;;;1.52;1.25;;;11.50;51.00;;;;;;5493621;26;19994;-77
2024/04/18 08:05:17;;;;;;;1.10;1.00;;;11.30;49.00;;;;;;5437066;26;20074;-77
2024/04/18 08:07:43;;;;;;;1.65;1.10;;;11.00;50.70;;;;;;5419763;26;20011;-77
2024/04/18 08:10:08;;;;;;;1.85;1.15;;;11.00;51.70;;;;;;5457200;26;20476;-77
2024/04/18 08:12:34;;;;;;;1.65;1.00;;;11.00;51.40;;;;;;5422365;26;20008;-76
2024/04/18 08:15:01;;;;;;;0.95;0.95;;;10.70;51.40;;;;;;5468912;26;19991;-76
2024/04/18 08:17:27;;;;;;;1.38;0.77;;;10.60;50.50;;;;;;5484716;26;20000;-77
2024/04/18 08:19:52;;;;;;;0.93;0.65;;;10.40;52.00;;;;;;5491370;26;19998;-78
2024/04/18 08:22:18;;;;;;;1.20;1.10;;;10.50;52.50;;;;;;5492971;26;19994;-77
2024/04/18 08:24:44;;;;;;;1.90;0.80;;;10.70;51.90;;;;;;5459160;26;20002;-78
2024/04/18 08:27:10;;;;;;;7.65;2.75;;;10.90;52.10;;;;;;5492722;26;19997;-76
2024/04/18 08:29:36;;;;;;;1.42;1.20;;;11.00;52.10;;;;;;5490110;26;19990;-77
2024/04/18 08:32:02;;;;;;;1.35;1.17;;;10.80;52.20;;;;;;5458776;26;20001;-76
2024/04/18 08:34:27;;;;;;;0.65;0.63;;;10.80;52.50;;;;;;5464190;26;20344;-76
2024/04/18 08:36:53;;;;;;;2.08;1.02;;;11.00;51.60;;;;;;5442425;26;19994;-76
2024/04/18 08:39:18;;;;;;;1.98;1.58;;;11.10;51.80;;;;;;5490731;26;19998;-77
2024/04/18 08:41:44;;;;;;;2.70;2.50;;;11.10;52.70;;;;;;5450834;26;20001;-76
2024/04/18 08:44:11;;;;;;;1.77;1.30;;;11.60;53.10;;;;;;5417689;26;20023;-77
2024/04/18 08:46:37;;;;;;;1.30;0.80;;;12.30;51.10;;;;;;5435957;26;19995;-75
2024/04/18 08:49:06;;;;;;;2.15;1.13;;;11.90;47.80;;;;;;5458389;26;20321;-76
2024/04/18 08:51:36;;;;;;;1.02;1.00;;;11.50;47.30;;;;;;5442378;26;20476;-76
2024/04/18 08:54:03;;;;;;;1.48;0.80;;;11.10;49.50;;;;;;5488608;26;19994;-76
2024/04/18 08:56:32;;;;;;;2.33;1.25;;;10.70;50.80;;;;;;5457309;26;19990;-76
2024/04/18 08:58:58;;;;;;;2.40;1.15;;;10.90;50.20;;;;;;5489465;26;19990;-76
2024/04/18 09:01:24;;;;;;;0.95;0.73;;;10.80;51.30;;;;;;5489496;26;20001;-76
2024/04/18 09:03:57;;;;;;;0.90;0.90;;;10.60;49.00;;;;;;5488921;26;19998;-76
2024/04/18 09:06:23;;;;;;;1.48;1.20;;;10.60;49.50;;;;;;5457132;26;20441;-76
2024/04/18 09:08:51;;;;;;;3.92;1.10;;;10.60;50.20;;;;;;5456243;26;20010;-76
2024/04/18 09:11:17;;;;;;;3.40;0.90;;;10.80;51.90;;;;;;5457133;26;20095;-76
2024/04/18 09:13:44;;;;;;;0.95;0.73;;;10.90;49.80;;;;;;5488948;26;19998;-76
2024/04/18 09:16:10;;;;;;;2.13;0.98;;;10.80;49.40;;;;;;5489182;26;20002;-76
2024/04/18 09:18:35;;;;;;;1.55;0.70;;;11.00;48.80;;;;;;5457614;26;20389;-76
2024/04/18 09:21:02;;;;;;;0.93;0.85;;;10.80;47.60;;;;;;5488930;26;20330;-76
2024/04/18 09:23:31;;;;;;;0.77;0.68;;;10.60;47.10;;;;;;5457188;26;19998;-76
2024/04/18 09:25:57;;;;;;;0.80;0.80;;;10.40;48.60;;;;;;5489692;26;20002;-76
2024/04/18 09:28:22;;;;;;;1.48;1.08;;;10.40;50.70;;;;;;5489465;26;20037;-76
2024/04/18 09:30:54;;;;;;;4.20;0.65;;;10.40;50.70;;;;;;5458221;26;20005;-78
2024/04/18 09:33:23;;;;;;;0.75;0.75;;;11.30;59.90;;;;;;5489350;26;19994;-76
2024/04/18 09:35:54;;;;;;;1.80;1.10;;;11.10;52.40;;;;;;5449694;26;19996;-76
2024/04/18 09:38:21;;;;;;;0.73;0.73;;;10.80;49.50;;;;;;5463708;26;20066;-78
2024/04/18 09:41:01;;;;;;;0.50;0.50;;;10.80;51.20;;;;;;5442943;26;19994;-76
2024/04/18 09:43:52;;;;;;;1.45;0.75;;;10.90;50.70;;;;;;5426664;26;20041;-77
2024/04/18 09:46:19;;;;;;;0.95;0.95;;;10.80;50.00;;;;;;5415015;26;20002;-77
2024/04/18 09:48:46;;;;;;;1.20;1.10;;;11.00;48.10;;;;;;5439673;26;19999;-77
2024/04/18 09:51:13;;;;;;;1.15;0.75;;;11.10;48.10;;;;;;5489337;26;20455;-77
2024/04/18 09:53:39;;;;;;;2.95;0.70;;;11.30;47.40;;;;;;5447264;26;19998;-77
2024/04/18 09:56:06;;;;;;;2.35;0.80;;;11.40;48.50;;;;;;5476682;26;20401;-77
2024/04/18 09:58:32;;;;;;;2.25;0.40;;;11.50;47.80;;;;;;5441661;26;19994;-77
2024/04/18 10:00:58;;;;;;;0.98;0.82;;;11.60;48.30;;;;;;5474990;26;19994;-77
2024/04/18 10:03:24;;;;;;;1.30;0.60;;;11.40;46.10;;;;;;5472566;26;20002;-77
2024/04/18 10:05:53;;;;;;;3.22;0.68;;;11.20;47.30;;;;;;5433142;26;20014;-78
2024/04/18 10:08:22;;;;;;;6.15;0.93;;;11.50;47.70;;;;;;5453893;26;20019;-78
2024/04/18 10:10:49;;;;;;;1.45;0.88;;;11.50;47.00;;;;;;5440779;26;19990;-75
2024/04/18 10:13:15;;;;;;;3.40;0.63;;;11.40;45.00;;;;;;5416043;26;19999;-77
2024/04/18 10:15:40;;;;;;;1.35;1.02;;;11.70;52.30;;;;;;5461948;26;20087;-76
2024/04/18 10:18:16;;;;;;;4.10;1.10;;;11.60;45.80;;;;;;5441607;26;19991;-76
2024/04/18 10:20:43;;;;;;;5.50;1.02;;;11.60;46.50;;;;;;5469843;26;20010;-76
2024/04/18 10:23:15;;;;;;;1.08;0.60;;;11.70;46.00;;;;;;5477468;26;20326;-76
2024/04/18 10:25:44;;;;;;;1.58;0.52;;;11.80;46.50;;;;;;5455339;26;20372;-76
2024/04/18 10:28:23;;;;;;;0.88;0.60;;;11.50;45.90;;;;;;5453505;26;19998;-76
2024/04/18 10:30:48;;;;;;;0.80;0.70;;;11.60;46.00;;;;;;5461664;26;19999;-76
2024/04/18 10:33:14;;;;;;;2.13;0.85;;;11.50;45.10;;;;;;5473248;26;19994;-76
2024/04/18 10:35:41;;;;;;;1.10;0.52;;;11.60;46.20;;;;;;5406953;26;19995;-76
2024/04/18 10:38:07;;;;;;;0.65;0.65;;;11.70;46.60;;;;;;5466661;26;20025;-76
2024/04/18 10:40:33;;;;;;;1.17;0.80;;;11.70;45.20;;;;;;5478718;26;19994;-76
2024/04/18 10:43:15;;;;;;;0.40;0.40;;;12.00;45.90;;;;;;5453971;26;20075;-76
2024/04/18 10:45:41;;;;;;;0.50;0.50;;;12.10;44.70;;;;;;5439836;26;19998;-78
2024/04/18 10:48:07;;;;;;;0.65;0.60;;;12.10;42.80;;;;;;5450818;26;19995;-77
2024/04/18 10:50:35;;;;;;;1.20;0.52;;;12.30;44.60;;;;;;5443952;26;20009;-78
2024/04/18 10:53:03;;;;;;;2.78;1.08;;;12.20;43.50;;;;;;5475227;26;20038;-77
2024/04/18 10:55:29;;;;;;;1.17;0.70;;;12.40;42.10;;;;;;5450491;26;19998;-77
2024/04/18 10:57:55;;;;;;;0.90;0.50;;;12.20;39.60;;;;;;5489813;26;19994;-77
2024/04/18 11:00:21;;;;;;;1.73;0.70;;;12.10;41.70;;;;;;5457948;26;20332;-77
2024/04/18 11:02:47;;;;;;;1.17;0.80;;;11.80;42.10;;;;;;5457416;26;19993;-77
2024/04/18 11:05:13;;;;;;;1.70;0.65;;;11.70;43.30;;;;;;5488849;26;19994;-77
2024/04/18 11:07:39;;;;;;;1.40;0.60;;;11.80;43.60;;;;;;5489573;26;20026;-77
2024/04/18 11:10:05;;;;;;;1.00;0.55;;;11.70;42.70;;;;;;5458792;26;19994;-77
2024/04/18 11:12:31;;;;;;;1.25;0.98;;;11.50;42.60;;;;;;5489704;26;19994;-77
2024/04/18 11:14:58;;;;;;;1.10;0.50;;;11.60;43.90;;;;;;5456487;26;20456;-77
2024/04/18 11:17:24;;;;;;;0.52;0.50;;;11.80;43.70;;;;;;5488958;26;19997;-77
2024/04/18 11:19:50;;;;;;;0.60;0.60;;;11.70;42.00;;;;;;5457218;26;20067;-77
2024/04/18 11:22:16;;;;;;;0.98;0.50;;;11.60;42.20;;;;;;5489075;26;20344;-77
2024/04/18 11:24:41;;;;;;;1.27;0.60;;;11.50;40.40;;;;;;5456514;26;19994;-77
2024/04/18 11:27:07;;;;;;;3.72;0.68;;;11.50;41.50;;;;;;5478145;26;19994;-77
2024/04/18 11:29:33;;;;;;;0.70;0.57;;;11.40;41.20;;;;;;5445399;26;20010;-77
2024/04/18 11:32:07;;;;;;;1.10;0.60;;;11.40;41.20;;;;;;5434874;26;20428;-77
2024/04/18 11:34:32;;;;;;;1.55;0.70;;;11.40;42.40;;;;;;5446590;26;20359;-77
2024/04/18 11:36:58;;;;;;;0.52;0.52;;;11.60;41.80;;;;;;5451483;26;20033;-77
2024/04/18 11:39:27;;;;;;;0.50;0.50;;;11.80;42.00;;;;;;5476436;26;20008;-77
2024/04/18 11:41:53;;;;;;;0.77;0.60;;;11.90;42.10;;;;;;5410609;26;20020;-77
2024/04/18 11:44:19;;;;;;;1.40;0.52;;;11.70;39.40;;;;;;5469814;26;19998;-77
2024/04/18 11:46:47;;;;;;;0.63;0.40;;;11.80;40.10;;;;;;5426570;26;19994;-78
2024/04/18 11:49:12;;;;;;;0.68;0.65;;;11.90;42.50;;;;;;5476265;26;19990;-77
2024/04/18 11:51:38;;;;;;;1.33;0.40;;;11.90;40.70;;;;;;5477142;26;20098;-77
2024/04/18 11:54:03;;;;;;;0.60;0.60;;;12.20;41.90;;;;;;5468505;26;20006;-77
2024/04/18 11:56:29;;;;;;;0.40;0.40;;;12.30;39.90;;;;;;5445205;26;20005;-77
2024/04/18 11:58:57;;;;;;;1.50;0.63;;;12.50;38.60;;;;;;5457561;26;20033;-78
2024/04/18 12:01:22;;;;;;;0.50;0.50;;;12.10;38.50;;;;;;5456103;26;20453;-77
2024/04/18 12:03:48;;;;;;;0.50;0.50;;;12.30;38.80;;;;;;5423131;26;19994;-78
2024/04/18 12:06:14;;;;;;;0.50;0.47;;;12.50;39.60;;;;;;5424665;26;20391;-77
2024/04/18 12:08:39;;;;;;;0.30;0.30;;;12.80;40.10;;;;;;5455932;26;20494;-78
2024/04/18 12:11:05;;;;;;;1.08;0.63;;;12.90;39.40;;;;;;5454777;26;20345;-77
2024/04/18 12:13:31;;;;;;;0.55;0.40;;;13.00;39.50;;;;;;5422891;26;20004;-78
2024/04/18 12:15:56;;;;;;;0.63;0.50;;;12.90;39.50;;;;;;5424030;26;19998;-77
2024/04/18 12:18:22;;;;;;;0.70;0.70;;;12.80;37.40;;;;;;5454935;26;20007;-78
2024/04/18 12:20:48;;;;;;;1.20;0.60;;;12.80;38.10;;;;;;5455498;26;19991;-77
2024/04/18 12:23:13;;;;;;;4.57;0.82;;;12.90;39.30;;;;;;5422826;26;20073;-77
2024/04/18 12:25:40;;;;;;;0.63;0.50;;;12.90;39.80;;;;;;5453779;26;19995;-78
2024/04/18 12:28:06;;;;;;;1.23;0.40;;;12.70;39.60;;;;;;5454369;26;20006;-77
2024/04/18 12:30:32;;;;;;;0.65;0.65;;;12.50;37.00;;;;;;5454311;26;19994;-76
2024/04/18 12:32:58;;;;;;;0.73;0.57;;;12.20;37.70;;;;;;5422888;26;20013;-76
2024/04/18 12:35:23;;;;;;;0.93;0.73;;;12.10;41.10;;;;;;5474216;26;20448;-77
2024/04/18 12:37:50;;;;;;;0.82;0.50;;;12.10;39.90;;;;;;5443024;26;20014;-77
2024/04/18 12:40:15;;;;;;;2.80;0.70;;;12.10;39.90;;;;;;5443126;26;20005;-77
2024/04/18 12:42:41;;;;;;;0.45;0.45;;;12.00;40.10;;;;;;5442491;26;20591;-77
2024/04/18 12:45:07;;;;;;;0.45;0.43;;;11.80;38.50;;;;;;5452485;26;20471;-78
2024/04/18 12:47:33;;;;;;;0.70;0.70;;;11.90;41.20;;;;;;5455272;26;20479;-77
2024/04/18 12:49:58;;;;;;;0.30;0.30;;;12.20;39.00;;;;;;5423856;26;19991;-77